Grant, Nebraska
Current Conditions -  °F | °C
As of 1:15 AM on Monday 26 Jan 2015 (Local Time) from KOGA Reporting Station
Clear Clear  
Wind Chill: 31°   Ceiling: Unl
Heat Index: 36°   Visibility: 10mi
Dew Point: 32°   Wind: 7mph
Humidity: 83%   Direction: 270°W
Pressure: 30.06"   Gusts: NA
Location:  40.84°N, 101.73°W
Report Text: KOGA 260815Z AUTO 27006KT 10SM CLR 02/00 A3006 RMK AO2 T00241002
Loading
Personal Weather Stations






























Interactive Weather Map New forecast layout! Learn more

10-Day Weather Forecast

Advertisements
Track Severe Weather on mobile